Time;durP1;ratioP1;P1;durP2;ratioP2;P2;SDS_P1;SDS_P2;PMS_P1;PMS_P2;Temp;Humidity;BMP_temperature;BMP_pressure;BME280_temperature;BME280_humidity;BME280_pressure;Samples;Min_cycle;Max_cycle;Signal;HPM_P1;HPM_P2
2021/06/08 00:00:07;;;;;;;0.10;0.10;;;;;;;13.32;100.00;93477.97;2118592;27;20492;-89
2021/06/08 00:01:08;;;;;;;0.20;0.20;;;;;;;13.31;100.00;93468.41;2099644;28;20020;-85
2021/06/08 00:02:09;;;;;;;0.10;0.10;;;;;;;13.35;100.00;93477.13;2102582;28;20273;-87
2021/06/08 00:03:10;;;;;;;0.10;0.10;;;;;;;13.35;100.00;93469.84;2092444;28;20116;-84
2021/06/08 00:04:10;;;;;;;0.15;0.15;;;;;;;13.33;100.00;93471.41;2092236;28;20025;-85
2021/06/08 00:05:11;;;;;;;0.10;0.10;;;;;;;13.34;100.00;93475.59;2101016;28;20068;-89
2021/06/08 00:06:12;;;;;;;0.10;0.10;;;;;;;13.33;100.00;93484.84;2099293;28;20025;-86
2021/06/08 00:07:13;;;;;;;0.10;0.10;;;;;;;13.33;100.00;93471.41;2098936;28;20577;-82
2021/06/08 00:08:14;;;;;;;0.10;0.10;;;;;;;13.33;100.00;93474.84;2101052;28;20400;-87
2021/06/08 00:09:15;;;;;;;0.10;0.10;;;;;;;13.32;100.00;93472.59;2109627;28;20408;-84
2021/06/08 00:10:17;;;;;;;0.10;0.10;;;;;;;13.33;100.00;93479.47;2099558;28;20020;-86
2021/06/08 00:11:20;;;;;;;0.03;0.03;;;;;;;13.35;100.00;93477.88;2093547;28;20460;-84
2021/06/08 00:12:21;;;;;;;0.10;0.10;;;;;;;13.38;100.00;93481.63;2102366;27;20036;-84
2021/06/08 00:13:22;;;;;;;0.08;0.08;;;;;;;13.35;100.00;93485.19;2109726;28;20501;-90
2021/06/08 00:14:23;;;;;;;0.10;0.10;;;;;;;13.30;100.00;93489.16;2114362;27;20089;-89
2021/06/08 00:15:24;;;;;;;0.08;0.08;;;;;;;13.34;100.00;93489.81;2108380;28;20484;-89
2021/06/08 00:16:25;;;;;;;0.10;0.10;;;;;;;13.35;100.00;93502.06;2117034;27;20139;-86
2021/06/08 00:17:25;;;;;;;0.00;0.00;;;;;;;13.42;100.00;93506.47;2116325;27;20027;-88
2021/06/08 00:18:26;;;;;;;0.28;0.20;;;;;;;13.62;100.00;93510.97;2109881;28;20023;-86
2021/06/08 00:19:27;;;;;;;0.45;0.28;;;;;;;13.70;100.00;93507.66;2109663;28;20057;-84
2021/06/08 00:20:29;;;;;;;1.20;0.28;;;;;;;13.59;100.00;93513.31;2125522;27;20027;-86
2021/06/08 00:21:30;;;;;;;0.28;0.20;;;;;;;13.53;100.00;93511.56;2114676;27;20027;-86
2021/06/08 00:22:31;;;;;;;0.63;0.32;;;;;;;13.53;100.00;93522.31;2110352;28;20023;-84
2021/06/08 00:23:32;;;;;;;0.57;0.30;;;;;;;13.63;100.00;93505.16;2098558;28;20115;-84
2021/06/08 00:24:32;;;;;;;0.57;0.20;;;;;;;13.33;100.00;93498.28;2099607;28;20250;-85
2021/06/08 00:25:33;;;;;;;0.10;0.10;;;;;;;13.35;100.00;93493.25;2107180;28;20134;-84
2021/06/08 00:26:35;;;;;;;0.88;0.57;;;;;;;13.29;100.00;93494.91;2101290;28;20024;-85
2021/06/08 00:27:36;;;;;;;0.30;0.10;;;;;;;13.29;100.00;93492.25;2109350;28;20142;-87
2021/06/08 00:28:37;;;;;;;0.10;0.10;;;;;;;13.18;100.00;93497.88;2109116;28;20020;-83
2021/06/08 00:29:38;;;;;;;0.20;0.10;;;;;;;13.20;100.00;93503.56;2118610;27;20029;-83
2021/06/08 00:30:39;;;;;;;0.00;0.00;;;;;;;13.13;100.00;93498.38;2109445;28;20051;-84
2021/06/08 00:31:39;;;;;;;0.00;0.00;;;;;;;13.13;100.00;93503.00;2102767;28;20529;-85
2021/06/08 00:32:40;;;;;;;0.00;0.00;;;;;;;13.10;100.00;93493.84;2099046;28;20036;-84
2021/06/08 00:33:41;;;;;;;0.10;0.10;;;;;;;13.14;100.00;93505.25;2092036;28;20020;-87
2021/06/08 00:34:42;;;;;;;0.20;0.20;;;;;;;13.12;100.00;93496.84;2090799;28;20796;-85
2021/06/08 00:35:43;;;;;;;0.10;0.10;;;;;;;13.10;100.00;93499.97;2105564;28;20029;-83
2021/06/08 00:36:43;;;;;;;0.10;0.10;;;;;;;13.10;100.00;93507.28;2114804;27;20103;-84
2021/06/08 00:37:44;;;;;;;0.20;0.20;;;;;;;13.11;100.00;93495.34;2110246;28;20019;-86
2021/06/08 00:38:45;;;;;;;0.10;0.10;;;;;;;13.09;100.00;93501.16;2109117;28;20073;-85
2021/06/08 00:39:46;;;;;;;0.17;0.17;;;;;;;13.10;100.00;93499.97;2118066;27;20573;-83
2021/06/08 00:40:47;;;;;;;0.20;0.20;;;;;;;13.12;100.00;93496.84;2126391;27;20027;-86
2021/06/08 00:41:48;;;;;;;0.20;0.20;;;;;;;13.21;100.00;93490.88;2108836;28;20027;-84
2021/06/08 00:42:48;;;;;;;0.20;0.20;;;;;;;13.18;100.00;93497.13;2093000;28;20031;-85
2021/06/08 00:43:49;;;;;;;0.20;0.20;;;;;;;13.11;100.00;93498.78;2100214;28;20027;-82
2021/06/08 00:44:50;;;;;;;0.10;0.10;;;;;;;13.07;100.00;93490.06;2113423;28;20034;-83
2021/06/08 00:45:52;;;;;;;0.00;0.00;;;;;;;13.06;100.00;93496.63;2108118;28;20027;-86
2021/06/08 00:46:53;;;;;;;0.10;0.10;;;;;;;13.04;100.00;93484.81;2109317;28;20378;-87
2021/06/08 00:47:54;;;;;;;0.65;0.13;;;;;;;13.05;100.00;93494.38;2107219;28;20059;-84
2021/06/08 00:48:55;;;;;;;0.17;0.10;;;;;;;13.02;100.00;93501.31;2110139;28;20028;-86
2021/06/08 00:49:55;;;;;;;0.08;0.08;;;;;;;12.98;100.00;93516.75;2109722;28;20024;-85
2021/06/08 00:50:56;;;;;;;0.00;0.00;;;;;;;12.98;100.00;93503.34;2118269;27;20050;-81
2021/06/08 00:51:57;;;;;;;0.10;0.08;;;;;;;13.02;100.00;93508.63;2118589;27;20039;-83
2021/06/08 00:52:58;;;;;;;0.10;0.10;;;;;;;13.00;100.00;93503.69;2120526;27;20073;-86
2021/06/08 00:54:05;;;;;;;0.20;0.10;;;;;;;13.02;100.00;93498.63;2111491;28;20239;-84
2021/06/08 00:55:10;;;;;;;0.00;0.00;;;;;;;12.98;100.00;93494.53;2112719;28;20090;-84
2021/06/08 00:56:10;;;;;;;0.10;0.10;;;;;;;12.98;100.00;93489.91;2110637;27;20030;-84
2021/06/08 00:57:11;;;;;;;0.00;0.00;;;;;;;13.06;100.00;93491.25;2114546;27;20266;-85
2021/06/08 00:58:12;;;;;;;0.10;0.00;;;;;;;13.01;100.00;93491.00;2109783;28;20636;-84
2021/06/08 00:59:13;;;;;;;0.10;0.10;;;;;;;12.99;100.00;93485.31;2117855;27;20031;-88
2021/06/08 01:00:15;;;;;;;0.03;0.00;;;;;;;12.95;100.00;93490.78;2116882;27;20020;-85
2021/06/08 01:01:16;;;;;;;0.10;0.00;;;;;;;12.98;100.00;93481.88;2110237;28;20073;-82
2021/06/08 01:02:16;;;;;;;0.43;0.10;;;;;;;12.92;100.00;93486.25;2102250;28;20032;-85
2021/06/08 01:03:17;;;;;;;0.00;0.00;;;;;;;12.91;100.00;93475.94;2101657;28;20024;-82
2021/06/08 01:04:18;;;;;;;0.10;0.10;;;;;;;12.94;100.00;93475.84;2111102;28;20107;-82
2021/06/08 01:05:19;;;;;;;0.10;0.03;;;;;;;12.90;100.00;93488.56;2108489;28;20563;-81
2021/06/08 01:06:19;;;;;;;0.00;0.00;;;;;;;12.83;100.00;93475.34;2109648;28;20057;-84
2021/06/08 01:07:20;;;;;;;0.00;0.00;;;;;;;12.83;100.00;93480.72;2101482;28;20024;-83
2021/06/08 01:08:21;;;;;;;0.20;0.10;;;;;;;12.84;100.00;93477.59;2109642;28;20051;-82
2021/06/08 01:09:22;;;;;;;0.10;0.00;;;;;;;12.84;100.00;93480.28;2117791;27;20078;-85
2021/06/08 01:10:23;;;;;;;0.10;0.10;;;;;;;12.76;100.00;93484.31;2111362;28;20023;-84
2021/06/08 01:11:24;;;;;;;0.57;0.05;;;;;;;12.78;100.00;93475.88;2109561;28;20180;-85
2021/06/08 01:12:26;;;;;;;0.00;0.00;;;;;;;12.71;100.00;93468.72;2110046;28;20039;-85
2021/06/08 01:13:29;;;;;;;0.00;0.00;;;;;;;12.69;100.00;93478.38;2117735;27;20024;-84
2021/06/08 01:14:29;;;;;;;0.00;0.00;;;;;;;12.69;100.00;93473.03;2125852;27;20065;-86
2021/06/08 01:15:30;;;;;;;0.20;0.10;;;;;;;12.62;100.00;93475.88;2118810;27;20039;-85
2021/06/08 01:16:32;;;;;;;0.00;0.00;;;;;;;12.66;100.00;93477.28;2108896;28;20012;-84
2021/06/08 01:17:32;;;;;;;0.20;0.10;;;;;;;12.65;100.00;93478.47;2101106;28;20078;-84
2021/06/08 01:18:33;;;;;;;0.10;0.10;;;;;;;12.62;100.00;93473.94;2109233;28;20051;-84
2021/06/08 01:19:37;;;;;;;0.00;0.00;;;;;;;12.54;100.00;93475.28;2125113;27;20054;-87
2021/06/08 01:20:38;;;;;;;0.30;0.20;;;;;;;12.55;100.00;93466.06;2110233;28;20212;-83
2021/06/08 01:21:39;;;;;;;0.00;0.00;;;;;;;12.51;100.00;93476.09;2092812;28;20111;-85
2021/06/08 01:22:40;;;;;;;0.00;0.00;;;;;;;12.53;100.00;93474.53;2103736;28;20024;-83
2021/06/08 01:23:42;;;;;;;0.00;0.00;;;;;;;12.51;100.00;93466.16;2107702;28;20040;-84
2021/06/08 01:24:44;;;;;;;0.10;0.10;;;;;;;12.49;100.00;93459.69;2105385;28;20050;-85
2021/06/08 01:25:45;;;;;;;0.20;0.13;;;;;;;12.50;100.00;93467.31;2108705;28;20030;-85
2021/06/08 01:26:46;;;;;;;0.00;0.00;;;;;;;12.58;100.00;93462.53;2109185;28;20034;-87
2021/06/08 01:27:48;;;;;;;0.10;0.10;;;;;;;12.51;100.00;93460.78;2108043;28;20061;-84
2021/06/08 01:28:49;;;;;;;0.00;0.00;;;;;;;12.47;100.00;93459.38;2091657;28;20492;-85
2021/06/08 01:29:52;;;;;;;0.55;0.10;;;;;;;12.48;100.00;93466.97;2102047;28;20062;-82
2021/06/08 01:30:54;;;;;;;0.20;0.10;;;;;;;12.51;100.00;93457.34;2118161;27;20034;-84
2021/06/08 01:31:58;;;;;;;0.20;0.10;;;;;;;12.47;100.00;93462.81;2109750;28;20085;-86
2021/06/08 01:33:01;;;;;;;0.52;0.25;;;;;;;12.44;100.00;93469.00;2099161;28;20059;-84
2021/06/08 01:34:02;;;;;;;0.10;0.08;;;;;;;12.46;100.00;93471.25;2100996;28;20091;-84
2021/06/08 01:35:03;;;;;;;0.10;0.10;;;;;;;12.42;100.00;93470.56;2101002;28;20054;-84
2021/06/08 01:36:06;;;;;;;0.38;0.10;;;;;;;12.38;100.00;93470.69;2108351;28;20488;-84
2021/06/08 01:37:08;;;;;;;0.05;0.05;;;;;;;12.41;100.00;93466.38;2100977;28;20059;-83
2021/06/08 01:38:09;;;;;;;0.20;0.10;;;;;;;12.42;100.00;93470.56;2099024;28;20032;-86
2021/06/08 01:39:10;;;;;;;0.00;0.00;;;;;;;12.38;100.00;93472.56;2099960;28;20020;-85
2021/06/08 01:40:18;;;;;;;0.00;0.00;;;;;;;12.38;100.00;93478.72;2101274;28;20024;-86
2021/06/08 01:41:24;;;;;;;0.10;0.10;;;;;;;12.37;100.00;93479.88;2110447;28;20410;-85
2021/06/08 01:42:25;;;;;;;0.10;0.10;;;;;;;12.42;100.00;93467.88;2127882;27;20398;-84
2021/06/08 01:43:26;;;;;;;0.00;0.00;;;;;;;12.39;100.00;93466.81;2115975;27;20027;-83
2021/06/08 01:44:27;;;;;;;0.10;0.05;;;;;;;12.34;100.00;93470.00;2100244;28;20028;-83
2021/06/08 01:45:28;;;;;;;0.10;0.00;;;;;;;12.31;100.00;93468.16;2100470;28;20024;-86
2021/06/08 01:46:29;;;;;;;0.10;0.10;;;;;;;12.27;100.00;93464.78;2101734;28;20370;-85
2021/06/08 01:47:30;;;;;;;0.00;0.00;;;;;;;12.22;100.00;93467.97;2107283;28;20110;-83
2021/06/08 01:48:31;;;;;;;0.00;0.00;;;;;;;12.19;100.00;93463.44;2110595;28;20028;-83
2021/06/08 01:49:31;;;;;;;0.00;0.00;;;;;;;12.16;100.00;93472.28;2109205;28;20379;-85
2021/06/08 01:50:33;;;;;;;0.00;0.00;;;;;;;12.13;100.00;93473.16;2111321;28;20447;-83
2021/06/08 01:51:39;;;;;;;0.03;0.03;;;;;;;12.16;100.00;93473.09;2107045;28;20031;-82
2021/06/08 01:52:55;;;;;;;0.55;0.10;;;;;;;12.16;100.00;93469.63;2107415;28;20380;-85
2021/06/08 01:54:24;;;;;;;0.25;0.10;;;;;;;12.09;100.00;93479.34;2102931;28;20036;-83
2021/06/08 01:55:31;;;;;;;0.10;0.10;;;;;;;12.10;100.00;93477.41;2099633;28;20020;-83
2021/06/08 01:56:34;;;;;;;0.10;0.10;;;;;;;12.12;100.00;93480.44;2110815;28;20028;-85
2021/06/08 01:57:35;;;;;;;0.45;0.15;;;;;;;12.15;100.00;93486.88;2112364;28;20093;-86
2021/06/08 01:58:56;;;;;;;0.10;0.10;;;;;;;12.08;100.00;93485.13;2101694;28;20032;-83
2021/06/08 02:00:08;;;;;;;0.00;0.00;;;;;;;12.00;100.00;93489.88;2099277;28;20396;-85
2021/06/08 02:01:15;;;;;;;0.00;0.00;;;;;;;12.07;100.00;93481.69;2111919;28;20357;-82
2021/06/08 02:02:24;;;;;;;0.10;0.10;;;;;;;12.10;100.00;93482.75;2119685;27;20023;-85
2021/06/08 02:05:47;;;;;;;;;;;;;;;12.10;100.00;93488.13;2131920;27;20182;-83
2021/06/08 02:07:22;;;;;;;0.00;0.00;;;;;;;12.07;100.00;93486.25;2120846;28;19972;-86
2021/06/08 02:08:38;;;;;;;0.00;0.00;;;;;;;12.03;100.00;93486.38;2083243;28;20487;-85
2021/06/08 02:09:49;;;;;;;0.38;0.10;;;;;;;12.07;100.00;93483.59;2127619;27;20039;-86
2021/06/08 02:10:54;;;;;;;0.88;0.10;;;;;;;12.10;100.00;93485.44;2131554;27;20019;-83
2021/06/08 02:12:16;;;;;;;0.00;0.00;;;;;;;12.06;100.00;93487.44;2121722;28;20074;-82
2021/06/08 02:13:46;;;;;;;0.00;0.00;;;;;;;12.03;100.00;93477.56;2114603;27;20034;-83
2021/06/08 02:15:06;;;;;;;0.00;0.00;;;;;;;12.05;100.00;93472.53;2114409;28;20474;-82
2021/06/08 02:16:19;;;;;;;0.00;0.00;;;;;;;12.00;100.00;93479.16;2118239;27;20084;-82
2021/06/08 02:17:25;;;;;;;0.00;0.00;;;;;;;12.00;100.00;93470.38;2118873;28;20043;-81
2021/06/08 02:18:29;;;;;;;0.10;0.10;;;;;;;12.00;100.00;93473.78;2114170;28;20365;-83
2021/06/08 02:19:32;;;;;;;0.00;0.00;;;;;;;12.04;100.00;93476.41;2114279;27;20020;-85
2021/06/08 02:20:36;;;;;;;0.00;0.00;;;;;;;11.95;100.00;93468.94;2122367;27;20024;-83
2021/06/08 02:21:43;;;;;;;0.00;0.00;;;;;;;12.01;100.00;93475.28;2122372;27;20031;-83
2021/06/08 02:22:47;;;;;;;0.10;0.10;;;;;;;12.00;100.00;93467.69;2114056;28;20036;-84
2021/06/08 02:23:51;;;;;;;0.15;0.08;;;;;;;12.08;100.00;93467.13;2113252;28;20114;-83
2021/06/08 02:24:53;;;;;;;0.00;0.00;;;;;;;12.02;100.00;93476.78;2103754;28;20673;-86
2021/06/08 02:25:54;;;;;;;0.00;0.00;;;;;;;12.01;100.00;93474.53;2107923;28;20028;-83
2021/06/08 02:27:02;;;;;;;0.00;0.00;;;;;;;12.01;100.00;93471.88;2104682;28;20085;-82
2021/06/08 02:28:07;;;;;;;0.30;0.10;;;;;;;11.98;100.00;93470.00;2115480;27;20347;-85
2021/06/08 02:29:09;;;;;;;0.00;0.00;;;;;;;11.91;100.00;93473.59;2120060;28;20031;-81
2021/06/08 02:30:11;;;;;;;0.10;0.10;;;;;;;11.96;100.00;93469.69;2113286;27;20019;-83
2021/06/08 02:31:14;;;;;;;0.15;0.10;;;;;;;11.95;100.00;93468.94;2111752;28;20104;-84
2021/06/08 02:32:16;;;;;;;0.20;0.00;;;;;;;11.97;100.00;93466.56;2121686;27;20023;-81
2021/06/08 02:33:17;;;;;;;0.00;0.00;;;;;;;11.97;100.00;93473.88;2121907;28;20019;-81
2021/06/08 02:34:19;;;;;;;0.10;0.00;;;;;;;11.97;100.00;93468.50;2111942;27;20027;-82
2021/06/08 02:35:22;;;;;;;0.00;0.00;;;;;;;11.98;100.00;93470.75;2129896;27;20027;-85
2021/06/08 02:36:24;;;;;;;0.10;0.10;;;;;;;11.96;100.00;93475.03;2129748;27;20029;-85
2021/06/08 02:37:25;;;;;;;0.00;0.00;;;;;;;11.97;100.00;93474.63;2120105;28;20023;-82
2021/06/08 02:38:27;;;;;;;0.00;0.00;;;;;;;12.00;100.00;93476.47;2110535;28;20020;-88
2021/06/08 02:39:29;;;;;;;0.00;0.00;;;;;;;11.97;100.00;93471.19;2108250;28;20115;-84
2021/06/08 02:40:31;;;;;;;0.00;0.00;;;;;;;11.96;100.00;93469.69;2113095;28;20032;-85
2021/06/08 02:41:33;;;;;;;0.05;0.00;;;;;;;11.95;100.00;93473.53;2112491;27;20107;-83
2021/06/08 02:42:35;;;;;;;0.00;0.00;;;;;;;11.90;100.00;93471.34;2111909;28;20069;-84
2021/06/08 02:43:38;;;;;;;0.00;0.00;;;;;;;11.92;100.00;93466.31;2102929;28;20035;-85
2021/06/08 02:44:41;;;;;;;0.17;0.10;;;;;;;11.95;100.00;93470.84;2103397;28;20544;-84
2021/06/08 02:45:42;;;;;;;0.00;0.00;;;;;;;11.95;100.00;93473.53;2111956;27;20054;-86
2021/06/08 02:46:43;;;;;;;0.00;0.00;;;;;;;11.94;100.00;93462.06;2118641;28;20105;-83
2021/06/08 02:47:45;;;;;;;0.00;0.00;;;;;;;11.95;100.00;93471.59;2115399;28;20028;-84
2021/06/08 02:48:47;;;;;;;0.00;0.00;;;;;;;11.86;100.00;93474.09;2107650;28;20016;-84
2021/06/08 02:49:49;;;;;;;0.20;0.20;;;;;;;11.91;100.00;93472.84;2111883;27;20046;-83
2021/06/08 02:50:50;;;;;;;0.00;0.00;;;;;;;11.88;100.00;93471.75;2129058;27;20027;-83
2021/06/08 02:51:52;;;;;;;0.10;0.10;;;;;;;11.92;100.00;93477.03;2128577;27;20022;-83
2021/06/08 02:52:54;;;;;;;0.10;0.10;;;;;;;11.93;100.00;93473.94;2121015;27;20292;-88
2021/06/08 02:53:56;;;;;;;0.38;0.10;;;;;;;11.94;100.00;93480.03;2119635;27;20453;-86
2021/06/08 02:54:59;;;;;;;0.20;0.10;;;;;;;11.94;100.00;93477.38;2111184;28;20020;-82
2021/06/08 02:56:00;;;;;;;0.00;0.00;;;;;;;11.95;100.00;93476.97;2111756;27;20028;-86
2021/06/08 02:57:02;;;;;;;0.00;0.00;;;;;;;11.90;100.00;93482.06;2120093;27;20125;-84
2021/06/08 02:58:05;;;;;;;0.00;0.00;;;;;;;11.92;100.00;93485.81;2111776;28;20024;-84
2021/06/08 02:59:07;;;;;;;0.00;0.00;;;;;;;11.89;100.00;93483.97;2111127;27;20498;-81
2021/06/08 03:00:10;;;;;;;0.00;0.00;;;;;;;11.92;100.00;93483.16;2107768;28;20048;-85
2021/06/08 03:01:16;;;;;;;0.00;0.00;;;;;;;11.91;100.00;93484.31;2120604;27;20024;-81
2021/06/08 03:02:20;;;;;;;0.00;0.00;;;;;;;11.90;100.00;93479.38;2120009;28;20034;-84
2021/06/08 03:03:26;;;;;;;0.00;0.00;;;;;;;11.92;100.00;93477.03;2111919;28;20020;-85
2021/06/08 03:04:50;;;;;;;0.00;0.00;;;;;;;11.91;100.00;93481.63;2095384;28;20086;-88
2021/06/08 03:06:05;;;;;;;0.20;0.10;;;;;;;11.88;100.00;93489.75;2107494;28;20035;-87
2021/06/08 03:07:09;;;;;;;0.00;0.00;;;;;;;11.91;100.00;93489.69;2111943;28;20137;-85
2021/06/08 03:08:21;;;;;;;0.00;0.00;;;;;;;11.90;100.00;93482.06;2111529;28;20487;-84
2021/06/08 03:09:36;;;;;;;0.00;0.00;;;;;;;11.93;100.00;93486.56;2112370;28;20030;-84
2021/06/08 03:10:38;;;;;;;0.10;0.10;;;;;;;11.93;100.00;93484.66;2104331;28;20038;-84
2021/06/08 03:11:40;;;;;;;0.20;0.10;;;;;;;11.93;100.00;93491.94;2102881;28;20466;-86
2021/06/08 03:12:45;;;;;;;0.10;0.10;;;;;;;11.92;100.00;93488.50;2102323;28;20133;-85
2021/06/08 03:13:46;;;;;;;0.00;0.00;;;;;;;11.84;100.00;93487.88;2101978;28;20030;-83
2021/06/08 03:14:50;;;;;;;0.00;0.00;;;;;;;11.87;100.00;93499.72;2108120;28;20107;-85
2021/06/08 03:15:57;;;;;;;0.03;0.03;;;;;;;11.87;100.00;93490.91;2112506;28;20016;-83
2021/06/08 03:17:01;;;;;;;0.00;0.00;;;;;;;11.86;100.00;93497.44;2098368;28;20028;-84
2021/06/08 03:18:08;;;;;;;0.10;0.10;;;;;;;11.88;100.00;93498.53;2098530;28;20070;-84
2021/06/08 03:19:13;;;;;;;0.57;0.10;;;;;;;11.86;100.00;93484.81;2096979;28;20122;-82
2021/06/08 03:20:41;;;;;;;0.10;0.10;;;;;;;11.86;100.00;93497.44;2090626;28;20021;-86
2021/06/08 03:21:43;;;;;;;0.10;0.10;;;;;;;11.83;100.00;93496.34;2091102;28;20344;-88
2021/06/08 03:22:47;;;;;;;0.10;0.10;;;;;;;11.83;100.00;93499.03;2105136;28;20035;-80
2021/06/08 03:23:52;;;;;;;0.10;0.10;;;;;;;11.87;100.00;93499.72;2114156;28;20059;-86
2021/06/08 03:24:56;;;;;;;0.10;0.10;;;;;;;11.88;100.00;93498.53;2113746;28;20515;-85
2021/06/08 03:25:59;;;;;;;0.15;0.08;;;;;;;11.87;100.00;93502.38;2103418;28;20078;-86
2021/06/08 03:27:02;;;;;;;0.00;0.00;;;;;;;11.81;100.00;93498.66;2097832;28;20020;-84
2021/06/08 03:28:05;;;;;;;0.10;0.10;;;;;;;11.90;100.00;93498.88;2097800;28;20028;-84
2021/06/08 03:29:08;;;;;;;0.00;0.00;;;;;;;11.87;100.00;93496.28;2097083;28;20028;-86
2021/06/08 03:30:11;;;;;;;0.10;0.10;;;;;;;11.82;100.00;93500.94;2106733;28;20169;-84
2021/06/08 03:31:14;;;;;;;0.00;0.00;;;;;;;11.80;100.00;93508.59;2102363;28;20024;-82
2021/06/08 03:32:15;;;;;;;0.00;0.00;;;;;;;11.76;100.00;93512.53;2096230;28;20096;-84
2021/06/08 03:33:19;;;;;;;0.00;0.00;;;;;;;11.75;100.00;93509.09;2103219;28;20035;-83
2021/06/08 03:34:20;;;;;;;0.05;0.05;;;;;;;11.74;100.00;93512.94;2097796;28;20070;-84
2021/06/08 03:35:25;;;;;;;0.10;0.10;;;;;;;11.79;100.00;93515.13;2088624;28;20021;-84
2021/06/08 03:36:27;;;;;;;0.10;0.00;;;;;;;11.84;100.00;93508.56;2106390;28;20035;-80
2021/06/08 03:37:29;;;;;;;0.05;0.05;;;;;;;11.82;100.00;93516.25;2106661;28;20073;-82
2021/06/08 03:38:32;;;;;;;0.00;0.00;;;;;;;11.77;100.00;93514.81;2114917;28;20089;-82
2021/06/08 03:39:34;;;;;;;0.00;0.00;;;;;;;11.78;100.00;93520.91;2106487;28;20032;-84
2021/06/08 03:40:36;;;;;;;0.00;0.00;;;;;;;11.81;100.00;93523.53;2090268;28;20082;-83
2021/06/08 03:41:37;;;;;;;0.08;0.08;;;;;;;11.78;100.00;93520.91;2098361;28;20032;-82
2021/06/08 03:42:39;;;;;;;0.00;0.00;;;;;;;11.78;100.00;93523.59;2105942;28;20115;-84
2021/06/08 03:43:41;;;;;;;0.03;0.03;;;;;;;11.79;100.00;93527.78;2096925;28;20072;-83
2021/06/08 03:44:42;;;;;;;0.00;0.00;;;;;;;11.79;100.00;93525.09;2089655;28;20017;-82
2021/06/08 03:45:48;;;;;;;0.00;0.00;;;;;;;11.79;100.00;93525.09;2098248;28;20393;-84
2021/06/08 03:46:50;;;;;;;0.00;0.00;;;;;;;11.81;100.00;93520.09;2106961;28;20032;-84
2021/06/08 03:47:54;;;;;;;0.10;0.10;;;;;;;11.80;100.00;93515.88;2096745;28;20035;-83
2021/06/08 03:48:58;;;;;;;0.10;0.10;;;;;;;11.81;100.00;93520.84;2090417;28;20051;-83
2021/06/08 03:49:59;;;;;;;0.20;0.10;;;;;;;11.82;100.00;93525.06;2098792;28;20314;-82
2021/06/08 03:51:01;;;;;;;0.00;0.00;;;;;;;11.83;100.00;93528.50;2098810;28;20024;-85
2021/06/08 03:52:03;;;;;;;0.10;0.10;;;;;;;11.83;100.00;93531.91;2098974;28;20093;-83
2021/06/08 03:53:03;;;;;;;0.00;0.00;;;;;;;11.78;100.00;93529.69;2106555;28;20028;-84
2021/06/08 03:54:04;;;;;;;0.03;0.03;;;;;;;11.81;100.00;93528.88;2106768;28;20050;-83
2021/06/08 03:55:05;;;;;;;0.10;0.10;;;;;;;11.77;100.00;93533.56;2106901;28;20077;-82
2021/06/08 03:56:10;;;;;;;0.10;0.10;;;;;;;11.75;100.00;93529.75;2106547;28;20032;-82
2021/06/08 03:57:12;;;;;;;0.10;0.10;;;;;;;11.74;100.00;93522.91;2098557;28;20100;-83
2021/06/08 03:58:15;;;;;;;0.10;0.10;;;;;;;11.77;100.00;93535.47;2090431;28;20032;-84
2021/06/08 03:59:19;;;;;;;0.00;0.00;;;;;;;11.78;100.00;93526.28;2087557;28;20025;-85
2021/06/08 04:00:25;;;;;;;0.00;0.00;;;;;;;11.81;100.00;93533.47;2097309;28;20024;-82
2021/06/08 04:01:28;;;;;;;0.10;0.10;;;;;;;11.82;100.00;93529.63;2098563;28;20504;-83
2021/06/08 04:02:29;;;;;;;0.00;0.00;;;;;;;11.80;100.00;93538.06;2098466;28;20028;-85
2021/06/08 04:03:34;;;;;;;0.00;0.00;;;;;;;11.82;100.00;93529.63;2098784;28;20020;-83
2021/06/08 04:04:35;;;;;;;0.00;0.00;;;;;;;11.86;100.00;93534.94;2098971;28;20050;-85
2021/06/08 04:05:37;;;;;;;0.00;0.00;;;;;;;11.83;100.00;93526.56;2097933;28;20048;-83
2021/06/08 04:06:39;;;;;;;0.00;0.00;;;;;;;11.81;100.00;93530.81;2105565;28;20056;-82
2021/06/08 04:07:46;;;;;;;0.10;0.10;;;;;;;11.84;100.00;93533.41;2114505;28;20026;-83
2021/06/08 04:08:47;;;;;;;0.10;0.10;;;;;;;11.82;100.00;93535.78;2106768;28;20031;-81
2021/06/08 04:09:49;;;;;;;0.10;0.10;;;;;;;11.83;100.00;93533.84;2097307;28;20115;-82
2021/06/08 04:10:50;;;;;;;0.00;0.00;;;;;;;11.84;100.00;93528.06;2097220;28;20063;-84
2021/06/08 04:11:52;;;;;;;0.00;0.00;;;;;;;11.77;100.00;93532.81;2109878;28;20020;-83
2021/06/08 04:12:59;;;;;;;0.10;0.10;;;;;;;11.80;100.00;93529.28;2097095;28;20096;-88
2021/06/08 04:14:01;;;;;;;0.00;0.00;;;;;;;11.80;100.00;93534.63;2099874;28;21069;-84
2021/06/08 04:15:06;;;;;;;0.00;0.00;;;;;;;11.80;100.00;93531.94;2106805;28;20024;-83
2021/06/08 04:16:08;;;;;;;0.25;0.10;;;;;;;11.79;100.00;93535.81;2114629;28;20023;-84
2021/06/08 04:17:10;;;;;;;0.00;0.00;;;;;;;11.73;100.00;93527.50;2114809;28;20027;-85
2021/06/08 04:18:11;;;;;;;0.10;0.10;;;;;;;11.74;100.00;93528.25;2097952;28;20035;-86
2021/06/08 04:19:13;;;;;;;0.10;0.08;;;;;;;11.76;100.00;93525.91;2101781;28;20024;-82
2021/06/08 04:20:14;;;;;;;0.00;0.00;;;;;;;11.80;100.00;93532.72;2109883;28;20494;-83
2021/06/08 04:21:15;;;;;;;0.00;0.00;;;;;;;11.74;100.00;93530.94;2097793;28;20099;-81
2021/06/08 04:22:26;;;;;;;0.10;0.05;;;;;;;11.80;100.00;93534.63;2089931;28;20095;-83
2021/06/08 04:23:28;;;;;;;0.10;0.10;;;;;;;11.76;100.00;93536.63;2099741;28;20036;-83
2021/06/08 04:24:29;;;;;;;0.00;0.00;;;;;;;11.81;100.00;93541.53;2090013;28;20063;-86
2021/06/08 04:25:30;;;;;;;0.00;0.00;;;;;;;11.80;100.00;93540.75;2098687;28;20473;-83
2021/06/08 04:26:31;;;;;;;0.03;0.03;;;;;;;11.77;100.00;93535.47;2098441;28;20111;-80
2021/06/08 04:27:35;;;;;;;0.00;0.00;;;;;;;11.81;100.00;93536.16;2097904;28;20111;-81
2021/06/08 04:28:36;;;;;;;0.00;0.00;;;;;;;11.80;100.00;93537.31;2105171;28;20066;-84
2021/06/08 04:29:39;;;;;;;0.00;0.00;;;;;;;11.82;100.00;93538.44;2097877;28;20051;-84
2021/06/08 04:30:40;;;;;;;0.00;0.00;;;;;;;11.77;100.00;93536.22;2106083;28;20020;-82
2021/06/08 04:31:41;;;;;;;0.00;0.00;;;;;;;11.80;100.00;93543.41;2115328;27;20026;-84
2021/06/08 04:32:42;;;;;;;0.08;0.08;;;;;;;11.75;100.00;93543.16;2115413;27;20026;-83
2021/06/08 04:33:46;;;;;;;0.75;0.10;;;;;;;11.78;100.00;93542.34;2105821;28;20055;-82
2021/06/08 04:34:52;;;;;;;0.10;0.10;;;;;;;11.75;100.00;93540.47;2114410;28;20012;-83
2021/06/08 04:35:52;;;;;;;0.00;0.00;;;;;;;11.75;100.00;93548.50;2105484;28;20043;-83
2021/06/08 04:36:53;;;;;;;0.00;0.00;;;;;;;11.67;100.00;93544.44;2104604;28;20118;-82
2021/06/08 04:37:54;;;;;;;0.30;0.10;;;;;;;11.72;100.00;93547.44;2114774;28;20024;-83
2021/06/08 04:38:55;;;;;;;0.10;0.10;;;;;;;11.76;100.00;93550.00;2106292;28;20070;-83
2021/06/08 04:39:56;;;;;;;0.00;0.00;;;;;;;11.81;100.00;93550.31;2097881;28;20481;-81
2021/06/08 04:40:56;;;;;;;0.00;0.00;;;;;;;11.77;100.00;93544.25;2097846;28;20039;-82
2021/06/08 04:41:57;;;;;;;0.00;0.00;;;;;;;11.79;100.00;93546.53;2106772;28;20028;-81
2021/06/08 04:42:58;;;;;;;0.10;0.10;;;;;;;11.81;100.00;93542.28;2097915;28;20030;-83
2021/06/08 04:43:59;;;;;;;0.00;0.00;;;;;;;11.81;100.00;93544.19;2089439;28;20024;-84
2021/06/08 04:45:00;;;;;;;0.00;0.00;;;;;;;11.83;100.00;93542.63;2097794;28;20038;-82
2021/06/08 04:46:12;;;;;;;0.08;0.00;;;;;;;11.89;100.00;93548.25;2094949;28;20027;-84
2021/06/08 04:47:19;;;;;;;0.10;0.10;;;;;;;11.88;100.00;93546.75;2092545;28;20036;-83
2021/06/08 04:48:24;;;;;;;0.00;0.00;;;;;;;11.90;100.00;93547.09;2103330;27;20024;-82
2021/06/08 04:49:24;;;;;;;0.00;0.00;;;;;;;11.85;100.00;93547.56;2109193;28;20114;-84
2021/06/08 04:50:26;;;;;;;0.00;0.00;;;;;;;11.86;100.00;93549.09;2095273;28;20020;-84
2021/06/08 04:51:27;;;;;;;0.00;0.00;;;;;;;11.82;100.00;93551.06;2104262;28;20122;-82
2021/06/08 04:52:28;;;;;;;0.10;0.10;;;;;;;11.87;100.00;93555.22;2114502;28;20049;-83
2021/06/08 04:53:28;;;;;;;0.05;0.05;;;;;;;11.86;100.00;93554.47;2105229;28;20351;-83
2021/06/08 04:54:29;;;;;;;0.00;0.00;;;;;;;11.93;100.00;93551.63;2096686;28;20070;-81
2021/06/08 04:55:30;;;;;;;0.00;0.00;;;;;;;11.89;100.00;93548.25;2105309;28;20024;-81